Flight Track Log - Related Links

Times and Time Zones

All times are in EDT time to prevent confusion due to time zone crossing. See the TRS14 flight status page for this flight to view local times or setup timezone preferences in your user account.

Time Position Orientation Groundspeed Altitude Reporting Facility
EDT Latitude Longitude Course Direction KTS MPH feet Rate Location/Type
Tue 03:10:21 PM 33.9500 -118.4500 261° West 164 189 900  Level Southern California TRACON
Tue 03:11:30 PM 33.9411 -118.5175 238° Southwest 195 224 3,000 2,465 Climbing Los Angeles Center
Tue 03:12:30 PM 33.9064 -118.5839 116° Southeast 230 265 6,200 3,150 Climbing Los Angeles Center
Tue 03:13:30 PM 33.8764 -118.5106 48° Northeast 121 139 9,300 2,750 Climbing Los Angeles Center
Tue 03:14:30 PM 33.9364 -118.4297 55° Northeast 121 139 11,700 2,400 Climbing Los Angeles Center
Tue 03:15:30 PM 33.9947 -118.3286 56° Northeast 251 289 14,100 2,500 Climbing Los Angeles Center
Tue 03:16:30 PM 34.0550 -118.2197 55° Northeast 322 371 16,700 2,300 Climbing Los Angeles Center
Tue 03:17:30 PM 34.1067 -118.1308 56° Northeast 363 418 18,700 2,300 Climbing Los Angeles Center
Tue 03:18:30 PM 34.1753 -118.0069 55° Northeast 391 450 21,300 2,400 Climbing Los Angeles Center
Tue 03:19:30 PM 34.2439 -117.8903 57° Northeast 414 476 23,500 1,850 Climbing Los Angeles Center
Tue 03:20:30 PM 34.3147 -117.7586 57° Northeast 414 476 25,000 1,500 Climbing Los Angeles Center
Tue 03:21:30 PM 34.3831 -117.6314 53° Northeast 425 489 26,500 1,150 Climbing Los Angeles Center
Tue 03:22:30 PM 34.4617 -117.5069 49° Northeast 449 517 27,300 1,200 Climbing Los Angeles Center
Tue 03:23:30 PM 34.5464 -117.3897 49° Northeast 455 524 28,900 1,550 Climbing Los Angeles Center
Tue 03:24:30 PM 34.6311 -117.2700 50° Northeast 460 529 30,400 1,650 Climbing Los Angeles Center
Tue 03:25:30 PM 34.7158 -117.1472 49° Northeast 471 542 32,200 1,600 Climbing Los Angeles Center
Tue 03:26:30 PM 34.8022 -117.0244 50° Northeast 471 542 33,600 1,450 Climbing Los Angeles Center
Tue 03:27:30 PM 34.8867 -116.9011 49° Northeast 471 542 35,100 1,450 Climbing Los Angeles Center
Tue 03:28:30 PM 34.9728 -116.7803 50° Northeast 471 542 36,500 1,200 Climbing Los Angeles Center
Tue 03:29:30 PM 35.0569 -116.6592 50° Northeast 471 542 37,500 950 Climbing Los Angeles Center
Tue 03:30:30 PM 35.1408 -116.5378 50° Northeast 471 542 38,400 700 Climbing Los Angeles Center
Tue 03:31:30 PM 35.2247 -116.4136 49° Northeast 476 548 38,900 300 Climbing Los Angeles Center
Tue 03:32:30 PM 35.3125 -116.2892 51° Northeast 471 542 39,000 50 Climbing Los Angeles Center
Tue 03:33:30 PM 35.3961 -116.1644 50° Northeast 476 548 39,000  Level Los Angeles Center
Tue 03:34:30 PM 35.4839 -116.0372 51° Northeast 476 548 39,000  Level Los Angeles Center
Tue 03:35:30 PM 35.5672 -115.9119 49° Northeast 476 548 39,000  Level Los Angeles Center
Tue 03:36:30 PM 35.6544 -115.7889 49° Northeast 476 548 39,000  Level Los Angeles Center
Tue 03:37:30 PM 35.7333 -115.6786 51° Northeast 476 548 39,000  Level Los Angeles Center
Tue 03:38:30 PM 35.8267 -115.5372 51° Northeast 476 548 39,000  Level Los Angeles Center
Tue 03:39:30 PM 35.9117 -115.4083 50° Northeast 481 554 39,000  Level Los Angeles Center
Tue 03:40:30 PM 35.9964 -115.2819 53° Northeast 481 554 39,000  Level Los Angeles Center
Tue 03:41:30 PM 36.0767 -115.1500 66° East 476 548 39,000  Level Los Angeles Center
Tue 03:42:30 PM 36.1297 -115.0003 69° East 476 548 39,000  Level Los Angeles Center
Tue 03:43:30 PM 36.1781 -114.8428 69° East 476 548 39,000  Level Los Angeles Center
Tue 03:44:30 PM 36.2264 -114.6847 69° East 476 548 39,000  Level Los Angeles Center
Tue 03:45:30 PM 36.2747 -114.5294 69° East 481 554 39,000  Level Los Angeles Center
Tue 03:46:30 PM 36.3225 -114.3739 69° East 481 554 39,000  Level Los Angeles Center
Tue 03:47:30 PM 36.3703 -114.2156 70° East 481 554 39,000  Level Los Angeles Center
Tue 03:48:30 PM 36.4178 -114.0569 70° East 486 559 39,000  Level Los Angeles Center
Tue 03:49:30 PM 36.4650 -113.8981 70° East 486 559 39,000  Level Los Angeles Center
Tue 03:50:30 PM 36.5022 -113.7681 70° East 491 565 39,000  Level Los Angeles Center
Tue 03:51:30 PM 36.5531 -113.5983 70° East 491 565 39,000  Level Los Angeles Center
Tue 03:52:30 PM 36.5997 -113.4367 70° East 491 565 39,000  Level Los Angeles Center
Tue 03:53:30 PM 36.6461 -113.2772 71° East 491 565 39,000  Level Los Angeles Center
Tue 03:54:30 PM 36.6961 -113.0992 70° East 491 565 39,000  Level Los Angeles Center
Tue 03:55:30 PM 36.7442 -112.9367 71° East 491 565 39,000  Level Los Angeles Center
Tue 03:56:30 PM 36.7897 -112.7742 71° East 491 565 39,000  Level Los Angeles Center
Tue 03:57:30 PM 36.8372 -112.6061 70° East 491 565 39,000  Level Los Angeles Center
Tue 03:58:30 PM 36.8844 -112.4431 71° East 491 565 39,000  Level Los Angeles Center
Tue 03:59:30 PM 36.9294 -112.2800 72° East 491 565 39,000  Level Los Angeles Center
Tue 04:01:06 PM 36.9903 -112.0478 71° East 496 571 39,000  Level Denver Center
Tue 04:02:06 PM 37.0386 -111.8669 70° East 496 571 39,000  Level Denver Center
Tue 04:03:06 PM 37.0858 -111.7039 70° East 490 564 39,000  Level Denver Center
Tue 04:04:06 PM 37.1331 -111.5381 72° East 496 571 39,000  Level Denver Center
Tue 04:05:06 PM 37.1758 -111.3717 72° East 496 571 39,000  Level Denver Center
Tue 04:06:06 PM 37.2206 -111.2028 72° East 496 571 39,000  Level Denver Center
Tue 04:07:06 PM 37.2647 -111.0361 71° East 496 571 39,000  Level Denver Center
Tue 04:08:06 PM 37.3136 -110.8539 71° East 496 571 39,000  Level Denver Center
Tue 04:09:06 PM 37.3575 -110.6894 72° East 496 571 39,000  Level Denver Center
Tue 04:10:06 PM 37.4011 -110.5222 72° East 496 571 39,000  Level Denver Center
Tue 04:11:06 PM 37.4467 -110.3494 69° East 496 571 39,000  Level Denver Center
Tue 04:12:06 PM 37.4981 -110.1822 72° East 496 571 39,000  Level Denver Center
Tue 04:13:06 PM 37.5411 -110.0142 72° East 501 577 39,000  Level Denver Center
Tue 04:14:06 PM 37.5792 -109.8617 72° East 495 570 39,000  Level Denver Center
Tue 04:15:06 PM 37.6261 -109.6778 72° East 495 570 39,000  Level Denver Center
Tue 04:16:06 PM 37.6706 -109.5042 73° East 495 570 39,000  Level Denver Center
Tue 04:17:06 PM 37.7125 -109.3328 73° East 495 570 39,000  Level Denver Center
Tue 04:18:06 PM 37.7494 -109.1819 73° East 500 575 39,000  Level Denver Center
Tue 04:19:06 PM 37.7956 -108.9919 68° East 500 575 39,000  Level Denver Center
Tue 04:20:06 PM 37.8492 -108.8203 66° East 512 589 39,000  Level Denver Center
Tue 04:21:06 PM 37.9067 -108.6592 67° East 512 589 39,000  Level Denver Center
Tue 04:22:06 PM 37.9575 -108.5081 67° East 512 589 39,000  Level Denver Center
Tue 04:23:06 PM 38.0144 -108.3408 66° East 512 589 39,000  Level Denver Center
Tue 04:24:06 PM 38.0714 -108.1789 68° East 507 583 39,000  Level Denver Center
Tue 04:25:06 PM 38.1236 -108.0167 66° East 494 568 39,000  Level Denver Center
Tue 04:26:06 PM 38.1864 -107.8331 67° East 494 568 39,000  Level Denver Center
Tue 04:27:06 PM 38.2425 -107.6650 66° East 504 580 39,000  Level Denver Center
Tue 04:28:06 PM 38.2942 -107.5153 68° East 511 588 39,000  Level Denver Center
Tue 04:29:06 PM 38.3539 -107.3281 66° East 520 598 39,000  Level Denver Center
Tue 04:30:06 PM 38.4114 -107.1644 69° East 515 593 39,000  Level Denver Center
Tue 04:31:06 PM 38.4625 -106.9928 76° East 515 593 39,000  Level Denver Center
Tue 04:32:06 PM 38.4922 -106.8364 76° East 504 580 39,000  Level Denver Center
Tue 04:33:06 PM 38.5303 -106.6428 76° East 498 573 39,000  Level Denver Center
Tue 04:34:06 PM 38.5636 -106.4706 76° East 498 573 39,000  Level Denver Center
Tue 04:35:06 PM 38.5969 -106.2950 77° East 503 579 39,000  Level Denver Center
Tue 04:36:06 PM 38.6278 -106.1169 76° East 508 585 39,000  Level Denver Center
Tue 04:37:06 PM 38.6606 -105.9442 75° East 514 592 39,000  Level Denver Center
Tue 04:38:06 PM 38.6950 -105.7736 76° East 502 578 39,000  Level Denver Center
Tue 04:39:06 PM 38.7292 -105.5975 77° East 502 578 39,000  Level Denver Center
Tue 04:40:06 PM 38.7592 -105.4269 76° East 497 572 39,000  Level Denver Center
Tue 04:41:06 PM 38.7928 -105.2558 77° East 491 565 39,000  Level Denver Center
Tue 04:42:06 PM 38.8222 -105.0847 77° East 486 559 39,000  Level Denver Center
Tue 04:43:06 PM 38.8533 -104.9136 76° East 491 565 39,000  Level Denver Center
Tue 04:44:06 PM 38.8864 -104.7422 78° East 491 565 39,000  Level Denver Center
Tue 04:45:06 PM 38.9150 -104.5706 77° East 491 565 39,000  Level Denver Center
Tue 04:46:06 PM 38.9472 -104.3961 77° East 491 565 39,000  Level Denver Center
Tue 04:47:06 PM 38.9775 -104.2217 77° East 491 565 39,000  Level Denver Center
Tue 04:48:06 PM 39.0056 -104.0658 77° East 491 565 39,000  Level Denver Center
Tue 04:49:06 PM 39.0372 -103.8908 78° East 491 565 39,000  Level Denver Center
Tue 04:50:06 PM 39.0644 -103.7189 77° East 491 565 39,000  Level Denver Center
Tue 04:51:06 PM 39.0956 -103.5408 78° East 491 565 39,000  Level Denver Center
Tue 04:52:06 PM 39.1244 -103.3683 78° East 491 565 39,000  Level Denver Center
Tue 04:53:06 PM 39.1528 -103.1958 77° East 491 565 39,000  Level Denver Center
Tue 04:54:06 PM 39.1833 -103.0256 78° East 491 565 39,000  Level Denver Center
Tue 04:55:06 PM 39.2114 -102.8525 80° East 491 565 39,000  Level Denver Center
Tue 04:56:06 PM 39.2350 -102.6825 78° East 491 565 39,000  Level Denver Center
Tue 04:57:06 PM 39.2661 -102.4875 78° East 491 565 39,000  Level Denver Center
Tue 04:58:06 PM 39.2933 -102.3169 79° East 491 565 39,000  Level Denver Center
Tue 04:59:06 PM 39.3183 -102.1464 78° East 486 559 39,000  Level Denver Center
Tue 05:00:06 PM 39.3469 -101.9725 79° East 491 565 39,000  Level Denver Center
Tue 05:01:06 PM 39.3714 -101.8017 78° East 486 559 39,000  Level Denver Center
Tue 05:02:06 PM 39.3964 -101.6494 78° East 479 551 39,000  Level Denver Center
Tue 05:03:06 PM 39.4281 -101.4592 78° East 479 551 39,000  Level Denver Center
Tue 05:04:06 PM 39.4558 -101.2903 77° East 484 557 39,000  Level Denver Center
Tue 05:05:06 PM 39.4822 -101.1375 77° East 479 551 39,000  Level Denver Center
Tue 05:06:06 PM 39.5119 -100.9683 78° East 474 545 39,000  Level Denver Center
Tue 05:07:06 PM 39.5442 -100.7744 77° East 487 560 39,000  Level Denver Center
Tue 05:08:06 PM 39.5731 -100.6050 79° East 487 560 39,000  Level Denver Center
Tue 05:09:06 PM 39.5964 -100.4492 78° East 492 566 39,000  Level Denver Center
Tue 05:10:06 PM 39.6278 -100.2575 78° East 492 566 39,000  Level Denver Center
Tue 05:11:06 PM 39.6558 -100.0850 79° East 492 566 39,000  Level Denver Center
Tue 05:12:06 PM 39.6783 -99.9289 79° East 492 566 39,000  Level Denver Center
Tue 05:14:07 PM 39.7306 -99.5767 77° East 502 578 39,000  Level Minneapolis Center
Tue 05:15:07 PM 39.7608 -99.4069 79° East 497 572 39,000  Level Minneapolis Center
Tue 05:17:07 PM 39.8131 -99.0558 79° East 492 566 39,000  Level Minneapolis Center
Tue 05:18:07 PM 39.8386 -98.8825 79° East 492 566 39,000  Level Minneapolis Center
Tue 05:19:07 PM 39.8658 -98.7067 79° East 492 566 39,000  Level Minneapolis Center
Tue 05:20:07 PM 39.8911 -98.5306 80° East 492 566 39,000  Level Minneapolis Center
Tue 05:21:06 PM 39.9133 -98.3594 79° East 487 560 39,000  Level Minneapolis Center
Tue 05:22:07 PM 39.9397 -98.1886 80° East 482 555 39,000  Level Minneapolis Center
Tue 05:23:07 PM 39.9639 -98.0175 80° East 482 555 39,000  Level Minneapolis Center
Tue 05:24:06 PM 39.9878 -97.8433 79° East 482 555 39,000  Level Minneapolis Center
Tue 05:25:06 PM 40.0133 -97.6722 79° East 482 555 39,000  Level Minneapolis Center
Tue 05:26:06 PM 40.0386 -97.4981 82° East 482 555 39,000  Level Minneapolis Center
Tue 05:27:06 PM 40.0578 -97.3178 80° East 471 542 39,000  Level Minneapolis Center
Tue 05:28:07 PM 40.0803 -97.1486 80° East 464 534 39,000  Level Minneapolis Center
Tue 05:29:07 PM 40.1025 -96.9767 81° East 470 541 39,000  Level Minneapolis Center
Tue 05:30:06 PM 40.1225 -96.8044 80° East 470 541 39,000  Level Minneapolis Center
Tue 05:31:06 PM 40.1444 -96.6322 80° East 475 547 39,000  Level Minneapolis Center
Tue 05:32:06 PM 40.1661 -96.4625 81° East 480 552 39,000  Level Minneapolis Center
Tue 05:33:06 PM 40.1872 -96.2928 74° East 480 552 39,000  Level Minneapolis Center
Tue 05:34:06 PM 40.2225 -96.1317 68° East 475 547 39,000  Level Minneapolis Center
Tue 05:35:06 PM 40.2722 -95.9708 67° East 465 535 39,000  Level Minneapolis Center
Tue 05:36:06 PM 40.3214 -95.8153 69° East 465 535 39,000  Level Minneapolis Center
Tue 05:37:06 PM 40.3683 -95.6539 68° East 465 535 39,000  Level Minneapolis Center
Tue 05:38:06 PM 40.4172 -95.4978 68° East 465 535 39,000  Level Minneapolis Center
Tue 05:39:07 PM 40.4661 -95.3361 68° East 465 535 39,000  Level Minneapolis Center
Tue 05:40:07 PM 40.5144 -95.1767 69° East 465 535 39,000  Level Minneapolis Center
Tue 05:41:06 PM 40.5625 -95.0144 68° East 465 535 39,000  Level Minneapolis Center
Tue 05:42:06 PM 40.6106 -94.8547 68° East 465 535 39,000  Level Minneapolis Center
Tue 05:43:06 PM 40.6583 -94.6947 68° East 470 541 39,000  Level Minneapolis Center
Tue 05:44:06 PM 40.7078 -94.5317 69° East 470 541 39,000  Level Minneapolis Center
Tue 05:45:06 PM 40.7550 -94.3714 68° East 470 541 39,000  Level Minneapolis Center
Tue 05:47:28 PM 40.8631 -94.0069 69° East 483 556 39,000  Level Chicago Center
Tue 05:48:28 PM 40.9092 -93.8481 63° Northeast 470 541 39,000  Level Chicago Center
Tue 05:49:28 PM 40.9672 -93.6953 55° Northeast 463 533 39,000  Level Chicago Center
Tue 05:50:28 PM 41.0392 -93.5569 56° Northeast 453 521 39,000  Level Chicago Center
Tue 05:51:28 PM 41.1108 -93.4153 57° Northeast 453 521 39,000  Level Chicago Center
Tue 05:52:28 PM 41.1806 -93.2706 57° Northeast 458 527 39,000  Level Chicago Center
Tue 05:53:28 PM 41.2500 -93.1283 57° Northeast 463 533 39,000  Level Chicago Center
Tue 05:54:28 PM 41.3217 -92.9806 57° Northeast 463 533 39,000  Level Chicago Center
Tue 05:55:28 PM 41.3950 -92.8322 57° Northeast 463 533 39,000  Level Chicago Center
Tue 05:56:28 PM 41.4639 -92.6892 61° Northeast 463 533 39,000  Level Chicago Center
Tue 05:57:28 PM 41.5289 -92.5314 55° Northeast 468 539 39,000  Level Chicago Center
Tue 05:58:28 PM 41.6014 -92.3933 58° Northeast 468 539 39,000  Level Chicago Center
Tue 05:59:28 PM 41.6697 -92.2492 59° Northeast 468 539 39,000  Level Chicago Center
Tue 06:00:28 PM 41.7403 -92.0939 58° Northeast 463 533 39,000  Level Chicago Center
Tue 06:01:28 PM 41.8083 -91.9492 59° Northeast 469 540 39,000  Level Chicago Center
Tue 06:02:28 PM 41.8828 -91.7847 68° East 464 534 39,000  Level Chicago Center
Tue 06:03:28 PM 41.9300 -91.6247 70° East 464 534 39,000  Level Chicago Center
Tue 06:04:28 PM 41.9747 -91.4558 71° East 469 540 39,000 -250 Level Chicago Center
Tue 06:05:28 PM 42.0194 -91.2839 70° East 469 540 38,500 -700 Descending Chicago Center
Tue 06:06:28 PM 42.0617 -91.1258 72° East 469 540 37,600 -950 Descending Chicago Center
Tue 06:07:28 PM 42.1017 -90.9592 70° East 463 533 36,600 -950 Descending Chicago Center
Tue 06:08:28 PM 42.1497 -90.7811 72° East 468 539 35,700 -950 Descending Chicago Center
Tue 06:09:28 PM 42.1892 -90.6194 71° East 468 539 34,700 -950 Descending Chicago Center
Tue 06:10:28 PM 42.2306 -90.4519 71° East 468 539 33,800 -1,150 Descending Chicago Center
Tue 06:11:28 PM 42.2739 -90.2786 71° East 468 539 32,400 -1,750 Descending Chicago Center
Tue 06:12:28 PM 42.3125 -90.1303 72° East 468 539 30,300 -2,100 Descending Chicago Center
Tue 06:13:28 PM 42.3508 -89.9736 73° East 456 525 28,200 -2,050 Descending Chicago Center
Tue 06:14:28 PM 42.3892 -89.7997 71° East 435 501 26,200 -1,500 Descending Chicago Center
Tue 06:15:28 PM 42.4272 -89.6508 72° East 424 488 25,200 -1,150 Descending Chicago Center
Tue 06:16:28 PM 42.4631 -89.5047 72° East 414 476 23,900 -1,100 Descending Chicago Center
Tue 06:17:28 PM 42.4983 -89.3583 73° East 414 476 23,000 -1,050 Descending Chicago Center
Tue 06:18:28 PM 42.5317 -89.2117 74° East 403 464 21,800 -1,550 Descending Chicago Center
Tue 06:19:28 PM 42.5628 -89.0681 75° East 403 464 19,900 -1,900 Descending Chicago Center
Tue 06:20:28 PM 42.5894 -88.9297 75° East 391 450 18,000 -1,850 Descending Chicago Center
Tue 06:21:28 PM 42.6158 -88.7914 76° East 377 434 16,200 -1,850 Descending Chicago Center
Tue 06:22:28 PM 42.6403 -88.6583 76° East 370 426 14,300 -1,850 Descending Chicago Center
Tue 06:23:28 PM 42.6622 -88.5339 76° East 358 412 12,500 -1,700 Descending Chicago Center
Tue 06:24:28 PM 42.6842 -88.4094 75° East 341 392 10,900 -1,100 Descending Chicago Center
Tue 06:25:28 PM 42.7061 -88.2989 18° North 310 357 10,300 -800 Descending Chicago Center
Tue 06:26:28 PM 42.7644 -88.2725 341° North 242 278 9,300 -1,250 Descending Chicago Center
Tue 06:27:28 PM 42.8272 -88.3025 339° North 269 310 7,800 -1,600 Descending Chicago Center
Tue 06:28:28 PM 42.8836 -88.3328 41° Northeast 234 269 6,100 -1,400 Descending Chicago Center
Tue 06:29:28 PM 42.9125 -88.2981 105° East 148 170 5,000 -800 Descending Chicago Center
Tue 06:30:28 PM 42.8994 -88.2303 96° East 199 229 4,500 -850 Descending Chicago Center
Tue 06:31:28 PM 42.8944 -88.1597 84° East 199 229 3,300 -850 Descending Chicago Center
Tue 06:32:35 PM 42.9000 -88.0833 71° East 188 216 2,700 -541 Descending KMKE
Tue 06:33:41 PM 42.9167 -88.0167 66° East 186 214 2,100 -600 Descending KMKE
Tue 06:34:35 PM 42.9333 -87.9667 66° East 145 167 1,500 -667 Descending KMKE

Login

Don't have an account? Register now (free) for customized features, flight alerts, and more!